sensor_id;sensor_type;location;lat;lon;timestamp;P1;durP1;ratioP1;P2;durP2;ratioP2
22851;SDS011;11592;45.460;9.240;2022-07-29T00:02:18;4.10;;;1.77;;
22851;SDS011;11592;45.460;9.240;2022-07-29T00:04:45;1.98;;;1.67;;
22851;SDS011;11592;45.460;9.240;2022-07-29T00:07:12;2.00;;;1.67;;
22851;SDS011;11592;45.460;9.240;2022-07-29T00:09:39;3.10;;;1.90;;
22851;SDS011;11592;45.460;9.240;2022-07-29T00:12:17;3.17;;;2.13;;
22851;SDS011;11592;45.460;9.240;2022-07-29T00:14:52;4.35;;;1.80;;
22851;SDS011;11592;45.460;9.240;2022-07-29T00:17:20;4.47;;;2.30;;
22851;SDS011;11592;45.460;9.240;2022-07-29T00:19:47;3.53;;;1.75;;
22851;SDS011;11592;45.460;9.240;2022-07-29T00:22:13;2.22;;;1.80;;
22851;SDS011;11592;45.460;9.240;2022-07-29T00:24:40;3.28;;;1.80;;
22851;SDS011;11592;45.460;9.240;2022-07-29T00:27:07;2.80;;;1.98;;
22851;SDS011;11592;45.460;9.240;2022-07-29T00:29:34;3.08;;;1.90;;
22851;SDS011;11592;45.460;9.240;2022-07-29T00:32:01;3.05;;;1.73;;
22851;SDS011;11592;45.460;9.240;2022-07-29T00:34:28;2.70;;;1.90;;
22851;SDS011;11592;45.460;9.240;2022-07-29T00:39:41;2.92;;;1.73;;
22851;SDS011;11592;45.460;9.240;2022-07-29T00:42:08;2.90;;;1.80;;
22851;SDS011;11592;45.460;9.240;2022-07-29T00:44:39;3.65;;;1.88;;
22851;SDS011;11592;45.460;9.240;2022-07-29T00:47:07;9.00;;;2.10;;
22851;SDS011;11592;45.460;9.240;2022-07-29T00:49:35;4.53;;;1.90;;
22851;SDS011;11592;45.460;9.240;2022-07-29T00:52:06;2.22;;;1.77;;
22851;SDS011;11592;45.460;9.240;2022-07-29T00:54:33;5.18;;;1.90;;
22851;SDS011;11592;45.460;9.240;2022-07-29T00:57:09;1.67;;;1.45;;
22851;SDS011;11592;45.460;9.240;2022-07-29T00:59:36;4.10;;;2.35;;
22851;SDS011;11592;45.460;9.240;2022-07-29T01:02:03;9.82;;;2.80;;
22851;SDS011;11592;45.460;9.240;2022-07-29T01:04:30;12.80;;;2.95;;
22851;SDS011;11592;45.460;9.240;2022-07-29T01:06:58;11.95;;;3.10;;
22851;SDS011;11592;45.460;9.240;2022-07-29T01:09:27;7.15;;;2.67;;
22851;SDS011;11592;45.460;9.240;2022-07-29T01:12:13;17.50;;;3.40;;
22851;SDS011;11592;45.460;9.240;2022-07-29T01:14:42;13.60;;;2.58;;
22851;SDS011;11592;45.460;9.240;2022-07-29T01:20:00;16.05;;;3.35;;
22851;SDS011;11592;45.460;9.240;2022-07-29T01:27:38;11.45;;;4.55;;
22851;SDS011;11592;45.460;9.240;2022-07-29T01:30:15;6.18;;;2.42;;
22851;SDS011;11592;45.460;9.240;2022-07-29T01:32:42;8.57;;;2.00;;
22851;SDS011;11592;45.460;9.240;2022-07-29T01:35:21;6.43;;;1.90;;
22851;SDS011;11592;45.460;9.240;2022-07-29T01:38:01;3.70;;;1.90;;
22851;SDS011;11592;45.460;9.240;2022-07-29T01:40:54;7.15;;;2.40;;
22851;SDS011;11592;45.460;9.240;2022-07-29T01:43:41;4.68;;;2.10;;
22851;SDS011;11592;45.460;9.240;2022-07-29T01:46:17;5.32;;;2.25;;
22851;SDS011;11592;45.460;9.240;2022-07-29T01:48:50;3.97;;;2.03;;
22851;SDS011;11592;45.460;9.240;2022-07-29T01:51:27;2.78;;;2.30;;
22851;SDS011;11592;45.460;9.240;2022-07-29T01:54:04;2.97;;;2.10;;
22851;SDS011;11592;45.460;9.240;2022-07-29T01:56:37;6.93;;;2.33;;
22851;SDS011;11592;45.460;9.240;2022-07-29T01:59:06;5.40;;;2.30;;
22851;SDS011;11592;45.460;9.240;2022-07-29T02:01:35;5.75;;;2.20;;
22851;SDS011;11592;45.460;9.240;2022-07-29T02:04:03;6.03;;;2.53;;
22851;SDS011;11592;45.460;9.240;2022-07-29T02:06:33;3.03;;;2.40;;
22851;SDS011;11592;45.460;9.240;2022-07-29T02:09:02;4.90;;;2.72;;
22851;SDS011;11592;45.460;9.240;2022-07-29T02:11:33;4.45;;;2.40;;
22851;SDS011;11592;45.460;9.240;2022-07-29T02:14:01;4.07;;;2.63;;
22851;SDS011;11592;45.460;9.240;2022-07-29T02:16:30;6.05;;;2.78;;
22851;SDS011;11592;45.460;9.240;2022-07-29T02:18:59;3.90;;;2.80;;
22851;SDS011;11592;45.460;9.240;2022-07-29T02:21:27;3.88;;;2.65;;
22851;SDS011;11592;45.460;9.240;2022-07-29T02:23:56;4.82;;;2.90;;
22851;SDS011;11592;45.460;9.240;2022-07-29T02:26:27;6.75;;;3.03;;
22851;SDS011;11592;45.460;9.240;2022-07-29T02:28:56;4.45;;;3.30;;
22851;SDS011;11592;45.460;9.240;2022-07-29T02:31:25;8.05;;;3.53;;
22851;SDS011;11592;45.460;9.240;2022-07-29T02:34:01;5.63;;;3.20;;
22851;SDS011;11592;45.460;9.240;2022-07-29T02:36:31;6.57;;;2.42;;
22851;SDS011;11592;45.460;9.240;2022-07-29T02:38:58;6.10;;;2.95;;
22851;SDS011;11592;45.460;9.240;2022-07-29T02:41:39;3.10;;;2.30;;
22851;SDS011;11592;45.460;9.240;2022-07-29T02:44:16;4.28;;;2.80;;
22851;SDS011;11592;45.460;9.240;2022-07-29T02:46:54;3.33;;;2.47;;
22851;SDS011;11592;45.460;9.240;2022-07-29T02:52:07;8.82;;;3.60;;
22851;SDS011;11592;45.460;9.240;2022-07-29T02:54:39;4.97;;;2.58;;
22851;SDS011;11592;45.460;9.240;2022-07-29T02:57:27;3.40;;;2.10;;
22851;SDS011;11592;45.460;9.240;2022-07-29T02:59:59;3.72;;;2.20;;
22851;SDS011;11592;45.460;9.240;2022-07-29T03:02:33;5.53;;;2.33;;
22851;SDS011;11592;45.460;9.240;2022-07-29T03:05:03;3.53;;;2.10;;
22851;SDS011;11592;45.460;9.240;2022-07-29T03:07:34;3.42;;;2.30;;
22851;SDS011;11592;45.460;9.240;2022-07-29T03:10:01;4.43;;;1.88;;
22851;SDS011;11592;45.460;9.240;2022-07-29T03:12:29;2.78;;;1.70;;
22851;SDS011;11592;45.460;9.240;2022-07-29T03:14:57;1.98;;;1.55;;
22851;SDS011;11592;45.460;9.240;2022-07-29T03:17:26;2.45;;;1.65;;
22851;SDS011;11592;45.460;9.240;2022-07-29T03:19:53;4.82;;;1.20;;
22851;SDS011;11592;45.460;9.240;2022-07-29T03:22:21;3.88;;;1.77;;
22851;SDS011;11592;45.460;9.240;2022-07-29T03:24:48;2.10;;;1.65;;
22851;SDS011;11592;45.460;9.240;2022-07-29T03:27:15;1.90;;;1.65;;
22851;SDS011;11592;45.460;9.240;2022-07-29T03:29:42;5.50;;;1.63;;
22851;SDS011;11592;45.460;9.240;2022-07-29T03:32:15;2.63;;;1.83;;
22851;SDS011;11592;45.460;9.240;2022-07-29T03:34:49;3.58;;;1.90;;
22851;SDS011;11592;45.460;9.240;2022-07-29T03:37:15;3.28;;;1.70;;
22851;SDS011;11592;45.460;9.240;2022-07-29T03:39:42;2.20;;;1.55;;
22851;SDS011;11592;45.460;9.240;2022-07-29T03:42:10;2.55;;;1.60;;
22851;SDS011;11592;45.460;9.240;2022-07-29T03:44:40;4.60;;;1.80;;
22851;SDS011;11592;45.460;9.240;2022-07-29T03:47:09;5.65;;;1.77;;
22851;SDS011;11592;45.460;9.240;2022-07-29T03:49:38;3.35;;;1.70;;
22851;SDS011;11592;45.460;9.240;2022-07-29T03:52:06;4.35;;;1.67;;
22851;SDS011;11592;45.460;9.240;2022-07-29T03:54:34;3.60;;;1.70;;
22851;SDS011;11592;45.460;9.240;2022-07-29T03:57:01;4.07;;;1.90;;
22851;SDS011;11592;45.460;9.240;2022-07-29T03:59:30;4.53;;;1.95;;
22851;SDS011;11592;45.460;9.240;2022-07-29T04:01:58;2.22;;;1.73;;
22851;SDS011;11592;45.460;9.240;2022-07-29T04:04:28;3.08;;;1.83;;
22851;SDS011;11592;45.460;9.240;2022-07-29T04:06:55;3.03;;;1.80;;
22851;SDS011;11592;45.460;9.240;2022-07-29T04:09:21;3.38;;;1.92;;
22851;SDS011;11592;45.460;9.240;2022-07-29T04:11:48;2.53;;;1.80;;
22851;SDS011;11592;45.460;9.240;2022-07-29T04:14:27;2.85;;;1.70;;
22851;SDS011;11592;45.460;9.240;2022-07-29T04:16:54;3.50;;;1.80;;
22851;SDS011;11592;45.460;9.240;2022-07-29T04:19:21;2.15;;;1.38;;
22851;SDS011;11592;45.460;9.240;2022-07-29T04:21:48;1.73;;;1.63;;
22851;SDS011;11592;45.460;9.240;2022-07-29T04:24:15;4.22;;;1.58;;
22851;SDS011;11592;45.460;9.240;2022-07-29T04:26:43;3.20;;;1.77;;
22851;SDS011;11592;45.460;9.240;2022-07-29T04:29:11;6.70;;;1.90;;
22851;SDS011;11592;45.460;9.240;2022-07-29T04:31:40;2.78;;;1.83;;
22851;SDS011;11592;45.460;9.240;2022-07-29T04:34:08;2.35;;;1.55;;
22851;SDS011;11592;45.460;9.240;2022-07-29T04:36:35;3.08;;;1.95;;
22851;SDS011;11592;45.460;9.240;2022-07-29T04:39:02;4.00;;;1.88;;
22851;SDS011;11592;45.460;9.240;2022-07-29T04:41:29;3.70;;;1.60;;
22851;SDS011;11592;45.460;9.240;2022-07-29T04:43:59;3.13;;;2.08;;
22851;SDS011;11592;45.460;9.240;2022-07-29T04:46:32;2.97;;;1.60;;
22851;SDS011;11592;45.460;9.240;2022-07-29T04:48:59;2.58;;;1.60;;
22851;SDS011;11592;45.460;9.240;2022-07-29T04:51:26;1.95;;;1.67;;
22851;SDS011;11592;45.460;9.240;2022-07-29T04:53:53;3.47;;;2.10;;
22851;SDS011;11592;45.460;9.240;2022-07-29T04:56:20;6.18;;;2.25;;
22851;SDS011;11592;45.460;9.240;2022-07-29T04:58:47;2.70;;;2.05;;
22851;SDS011;11592;45.460;9.240;2022-07-29T05:01:14;3.58;;;2.10;;
22851;SDS011;11592;45.460;9.240;2022-07-29T05:03:41;2.63;;;2.10;;
22851;SDS011;11592;45.460;9.240;2022-07-29T05:06:08;3.08;;;1.98;;
22851;SDS011;11592;45.460;9.240;2022-07-29T05:08:34;4.53;;;1.73;;
22851;SDS011;11592;45.460;9.240;2022-07-29T05:11:01;2.95;;;2.03;;
22851;SDS011;11592;45.460;9.240;2022-07-29T05:13:38;4.15;;;1.98;;
22851;SDS011;11592;45.460;9.240;2022-07-29T05:16:12;3.67;;;2.42;;
22851;SDS011;11592;45.460;9.240;2022-07-29T05:18:39;3.90;;;2.40;;
22851;SDS011;11592;45.460;9.240;2022-07-29T05:21:06;5.07;;;2.30;;
22851;SDS011;11592;45.460;9.240;2022-07-29T05:23:33;5.75;;;2.58;;
22851;SDS011;11592;45.460;9.240;2022-07-29T05:26:00;6.32;;;2.28;;
22851;SDS011;11592;45.460;9.240;2022-07-29T05:28:27;5.00;;;2.20;;
22851;SDS011;11592;45.460;9.240;2022-07-29T05:30:54;3.13;;;2.08;;
22851;SDS011;11592;45.460;9.240;2022-07-29T05:33:21;5.65;;;2.13;;
22851;SDS011;11592;45.460;9.240;2022-07-29T05:36:02;3.10;;;1.88;;
22851;SDS011;11592;45.460;9.240;2022-07-29T05:38:31;2.53;;;1.90;;
22851;SDS011;11592;45.460;9.240;2022-07-29T05:40:59;5.38;;;2.45;;
22851;SDS011;11592;45.460;9.240;2022-07-29T05:43:26;3.45;;;2.22;;
22851;SDS011;11592;45.460;9.240;2022-07-29T05:45:54;4.35;;;1.80;;
22851;SDS011;11592;45.460;9.240;2022-07-29T05:48:21;3.13;;;1.95;;
22851;SDS011;11592;45.460;9.240;2022-07-29T05:50:48;4.43;;;2.15;;
22851;SDS011;11592;45.460;9.240;2022-07-29T05:53:15;3.92;;;1.80;;
22851;SDS011;11592;45.460;9.240;2022-07-29T05:55:46;2.88;;;1.90;;
22851;SDS011;11592;45.460;9.240;2022-07-29T05:58:13;2.65;;;2.03;;
22851;SDS011;11592;45.460;9.240;2022-07-29T06:00:40;3.35;;;1.80;;
22851;SDS011;11592;45.460;9.240;2022-07-29T06:03:07;5.70;;;2.72;;
22851;SDS011;11592;45.460;9.240;2022-07-29T06:05:34;3.22;;;1.40;;
22851;SDS011;11592;45.460;9.240;2022-07-29T06:08:01;1.85;;;1.38;;
22851;SDS011;11592;45.460;9.240;2022-07-29T06:10:28;2.83;;;1.80;;
22851;SDS011;11592;45.460;9.240;2022-07-29T06:12:55;2.00;;;1.60;;
22851;SDS011;11592;45.460;9.240;2022-07-29T06:15:21;2.65;;;1.70;;
22851;SDS011;11592;45.460;9.240;2022-07-29T06:17:48;2.35;;;2.03;;
22851;SDS011;11592;45.460;9.240;2022-07-29T06:20:27;4.50;;;2.30;;
22851;SDS011;11592;45.460;9.240;2022-07-29T06:22:58;4.07;;;1.85;;
22851;SDS011;11592;45.460;9.240;2022-07-29T06:25:26;5.60;;;2.03;;
22851;SDS011;11592;45.460;9.240;2022-07-29T06:27:55;3.60;;;2.25;;
22851;SDS011;11592;45.460;9.240;2022-07-29T06:30:24;2.75;;;1.75;;
22851;SDS011;11592;45.460;9.240;2022-07-29T06:32:51;5.50;;;1.80;;
22851;SDS011;11592;45.460;9.240;2022-07-29T06:35:18;2.42;;;1.60;;
22851;SDS011;11592;45.460;9.240;2022-07-29T06:38:04;2.58;;;1.65;;
22851;SDS011;11592;45.460;9.240;2022-07-29T06:40:51;7.28;;;1.65;;
22851;SDS011;11592;45.460;9.240;2022-07-29T06:43:33;3.03;;;1.88;;
22851;SDS011;11592;45.460;9.240;2022-07-29T06:46:18;2.85;;;1.85;;
22851;SDS011;11592;45.460;9.240;2022-07-29T06:48:45;2.88;;;1.77;;
22851;SDS011;11592;45.460;9.240;2022-07-29T06:51:13;3.20;;;1.95;;
22851;SDS011;11592;45.460;9.240;2022-07-29T06:53:41;6.72;;;1.90;;
22851;SDS011;11592;45.460;9.240;2022-07-29T06:56:26;6.35;;;2.38;;
22851;SDS011;11592;45.460;9.240;2022-07-29T06:58:52;5.43;;;2.10;;
22851;SDS011;11592;45.460;9.240;2022-07-29T07:01:19;5.70;;;1.85;;
22851;SDS011;11592;45.460;9.240;2022-07-29T07:03:47;3.08;;;2.05;;
22851;SDS011;11592;45.460;9.240;2022-07-29T07:06:13;3.15;;;1.63;;
22851;SDS011;11592;45.460;9.240;2022-07-29T07:08:40;5.93;;;1.70;;
22851;SDS011;11592;45.460;9.240;2022-07-29T07:11:07;4.45;;;2.08;;
22851;SDS011;11592;45.460;9.240;2022-07-29T07:13:34;5.95;;;2.10;;
22851;SDS011;11592;45.460;9.240;2022-07-29T07:16:02;6.68;;;1.90;;
22851;SDS011;11592;45.460;9.240;2022-07-29T07:18:29;4.13;;;2.05;;
22851;SDS011;11592;45.460;9.240;2022-07-29T07:20:56;4.05;;;1.85;;
22851;SDS011;11592;45.460;9.240;2022-07-29T07:23:24;6.07;;;2.10;;
22851;SDS011;11592;45.460;9.240;2022-07-29T07:25:51;3.08;;;2.05;;
22851;SDS011;11592;45.460;9.240;2022-07-29T07:28:19;4.82;;;2.00;;
22851;SDS011;11592;45.460;9.240;2022-07-29T07:30:50;7.80;;;2.20;;
22851;SDS011;11592;45.460;9.240;2022-07-29T07:33:17;4.45;;;2.22;;
22851;SDS011;11592;45.460;9.240;2022-07-29T07:35:44;3.75;;;2.17;;
22851;SDS011;11592;45.460;9.240;2022-07-29T07:38:11;5.43;;;2.20;;
22851;SDS011;11592;45.460;9.240;2022-07-29T07:40:38;3.50;;;2.10;;
22851;SDS011;11592;45.460;9.240;2022-07-29T07:43:06;3.47;;;2.33;;
22851;SDS011;11592;45.460;9.240;2022-07-29T07:45:32;3.22;;;2.20;;
22851;SDS011;11592;45.460;9.240;2022-07-29T07:48:00;5.53;;;2.20;;
22851;SDS011;11592;45.460;9.240;2022-07-29T07:50:26;5.88;;;2.28;;
22851;SDS011;11592;45.460;9.240;2022-07-29T07:52:54;4.82;;;2.20;;
22851;SDS011;11592;45.460;9.240;2022-07-29T07:55:24;5.03;;;2.10;;
22851;SDS011;11592;45.460;9.240;2022-07-29T07:57:52;5.70;;;2.33;;
22851;SDS011;11592;45.460;9.240;2022-07-29T08:00:20;4.88;;;2.58;;
22851;SDS011;11592;45.460;9.240;2022-07-29T08:02:49;6.68;;;2.80;;
22851;SDS011;11592;45.460;9.240;2022-07-29T08:05:16;3.95;;;1.95;;
22851;SDS011;11592;45.460;9.240;2022-07-29T08:07:44;3.22;;;2.15;;
22851;SDS011;11592;45.460;9.240;2022-07-29T08:10:13;3.92;;;2.88;;
22851;SDS011;11592;45.460;9.240;2022-07-29T08:13:03;4.03;;;2.35;;
22851;SDS011;11592;45.460;9.240;2022-07-29T08:15:30;9.13;;;2.35;;
22851;SDS011;11592;45.460;9.240;2022-07-29T08:17:58;4.25;;;2.80;;
22851;SDS011;11592;45.460;9.240;2022-07-29T08:20:25;4.07;;;2.40;;
22851;SDS011;11592;45.460;9.240;2022-07-29T08:22:52;5.72;;;3.00;;
22851;SDS011;11592;45.460;9.240;2022-07-29T08:25:19;11.73;;;2.50;;
22851;SDS011;11592;45.460;9.240;2022-07-29T08:27:47;4.07;;;2.42;;
22851;SDS011;11592;45.460;9.240;2022-07-29T08:30:14;7.18;;;2.60;;
22851;SDS011;11592;45.460;9.240;2022-07-29T08:32:41;7.20;;;2.50;;
22851;SDS011;11592;45.460;9.240;2022-07-29T08:35:20;6.53;;;2.83;;
22851;SDS011;11592;45.460;9.240;2022-07-29T08:37:48;3.20;;;2.40;;
22851;SDS011;11592;45.460;9.240;2022-07-29T08:40:15;5.32;;;2.38;;
22851;SDS011;11592;45.460;9.240;2022-07-29T08:42:42;3.63;;;2.17;;
22851;SDS011;11592;45.460;9.240;2022-07-29T08:45:09;8.13;;;2.50;;
22851;SDS011;11592;45.460;9.240;2022-07-29T08:47:36;5.43;;;2.80;;
22851;SDS011;11592;45.460;9.240;2022-07-29T08:50:08;5.50;;;2.88;;
22851;SDS011;11592;45.460;9.240;2022-07-29T08:52:37;5.20;;;2.50;;
22851;SDS011;11592;45.460;9.240;2022-07-29T08:55:07;7.88;;;2.70;;
22851;SDS011;11592;45.460;9.240;2022-07-29T08:57:35;4.28;;;2.00;;
22851;SDS011;11592;45.460;9.240;2022-07-29T09:00:16;5.10;;;3.90;;
22851;SDS011;11592;45.460;9.240;2022-07-29T09:02:45;6.57;;;2.97;;
22851;SDS011;11592;45.460;9.240;2022-07-29T09:05:18;4.15;;;2.60;;
22851;SDS011;11592;45.460;9.240;2022-07-29T09:07:45;7.13;;;2.50;;
22851;SDS011;11592;45.460;9.240;2022-07-29T09:10:14;7.32;;;3.40;;
22851;SDS011;11592;45.460;9.240;2022-07-29T09:12:41;6.07;;;2.95;;
22851;SDS011;11592;45.460;9.240;2022-07-29T09:15:08;5.95;;;2.90;;
22851;SDS011;11592;45.460;9.240;2022-07-29T09:20:16;4.82;;;2.80;;
22851;SDS011;11592;45.460;9.240;2022-07-29T09:22:45;5.93;;;2.47;;
22851;SDS011;11592;45.460;9.240;2022-07-29T09:25:31;3.75;;;2.67;;
22851;SDS011;11592;45.460;9.240;2022-07-29T09:28:09;5.32;;;2.92;;
22851;SDS011;11592;45.460;9.240;2022-07-29T09:30:52;5.60;;;2.75;;
22851;SDS011;11592;45.460;9.240;2022-07-29T09:33:30;5.57;;;3.53;;
22851;SDS011;11592;45.460;9.240;2022-07-29T09:36:07;4.20;;;2.75;;
22851;SDS011;11592;45.460;9.240;2022-07-29T09:38:35;4.13;;;2.53;;
22851;SDS011;11592;45.460;9.240;2022-07-29T09:41:03;3.65;;;2.45;;
22851;SDS011;11592;45.460;9.240;2022-07-29T09:43:32;4.68;;;2.58;;
22851;SDS011;11592;45.460;9.240;2022-07-29T09:46:09;6.97;;;3.25;;
22851;SDS011;11592;45.460;9.240;2022-07-29T09:48:40;5.25;;;2.95;;
22851;SDS011;11592;45.460;9.240;2022-07-29T09:51:17;5.97;;;2.60;;
22851;SDS011;11592;45.460;9.240;2022-07-29T09:53:51;3.30;;;2.60;;
22851;SDS011;11592;45.460;9.240;2022-07-29T09:56:18;5.82;;;3.22;;
22851;SDS011;11592;45.460;9.240;2022-07-29T09:58:45;6.70;;;2.70;;
22851;SDS011;11592;45.460;9.240;2022-07-29T10:01:12;7.45;;;2.88;;
22851;SDS011;11592;45.460;9.240;2022-07-29T10:03:52;4.18;;;2.72;;
22851;SDS011;11592;45.460;9.240;2022-07-29T10:06:19;4.32;;;2.80;;
22851;SDS011;11592;45.460;9.240;2022-07-29T10:08:46;3.22;;;2.33;;
22851;SDS011;11592;45.460;9.240;2022-07-29T10:11:13;6.10;;;3.25;;
22851;SDS011;11592;45.460;9.240;2022-07-29T10:13:43;5.70;;;2.78;;
22851;SDS011;11592;45.460;9.240;2022-07-29T10:16:14;5.10;;;2.42;;
22851;SDS011;11592;45.460;9.240;2022-07-29T10:18:43;3.85;;;2.65;;
22851;SDS011;11592;45.460;9.240;2022-07-29T10:21:10;4.63;;;2.80;;
22851;SDS011;11592;45.460;9.240;2022-07-29T10:23:57;3.35;;;2.50;;
22851;SDS011;11592;45.460;9.240;2022-07-29T10:26:26;8.07;;;3.33;;
22851;SDS011;11592;45.460;9.240;2022-07-29T10:28:55;5.05;;;3.17;;
22851;SDS011;11592;45.460;9.240;2022-07-29T10:31:44;4.15;;;3.15;;
22851;SDS011;11592;45.460;9.240;2022-07-29T10:34:23;4.97;;;3.25;;
22851;SDS011;11592;45.460;9.240;2022-07-29T10:37:14;4.15;;;3.25;;
22851;SDS011;11592;45.460;9.240;2022-07-29T10:42:28;3.55;;;3.17;;
22851;SDS011;11592;45.460;9.240;2022-07-29T10:44:59;5.88;;;2.80;;
22851;SDS011;11592;45.460;9.240;2022-07-29T10:47:29;5.00;;;3.10;;
22851;SDS011;11592;45.460;9.240;2022-07-29T10:50:01;4.85;;;3.63;;
22851;SDS011;11592;45.460;9.240;2022-07-29T10:55:31;6.68;;;3.83;;
22851;SDS011;11592;45.460;9.240;2022-07-29T10:58:11;7.28;;;4.22;;
22851;SDS011;11592;45.460;9.240;2022-07-29T11:00:47;6.65;;;4.30;;
22851;SDS011;11592;45.460;9.240;2022-07-29T11:06:22;6.60;;;3.90;;
22851;SDS011;11592;45.460;9.240;2022-07-29T11:11:51;5.88;;;3.38;;
22851;SDS011;11592;45.460;9.240;2022-07-29T11:14:19;8.05;;;3.42;;
22851;SDS011;11592;45.460;9.240;2022-07-29T11:17:24;8.93;;;3.97;;
22851;SDS011;11592;45.460;9.240;2022-07-29T11:19:51;9.30;;;3.92;;
22851;SDS011;11592;45.460;9.240;2022-07-29T11:22:57;6.50;;;3.90;;
22851;SDS011;11592;45.460;9.240;2022-07-29T11:25:24;5.43;;;3.55;;
22851;SDS011;11592;45.460;9.240;2022-07-29T11:28:16;4.93;;;3.60;;
22851;SDS011;11592;45.460;9.240;2022-07-29T11:30:51;6.05;;;4.18;;
22851;SDS011;11592;45.460;9.240;2022-07-29T11:33:32;6.07;;;4.15;;
22851;SDS011;11592;45.460;9.240;2022-07-29T11:36:19;6.25;;;3.97;;
22851;SDS011;11592;45.460;9.240;2022-07-29T11:38:53;5.43;;;3.55;;
22851;SDS011;11592;45.460;9.240;2022-07-29T11:47:52;6.10;;;4.30;;
22851;SDS011;11592;45.460;9.240;2022-07-29T11:50:44;4.82;;;3.53;;
22851;SDS011;11592;45.460;9.240;2022-07-29T11:53:13;8.77;;;4.38;;
22851;SDS011;11592;45.460;9.240;2022-07-29T11:55:41;7.05;;;3.78;;
22851;SDS011;11592;45.460;9.240;2022-07-29T11:58:20;4.47;;;3.55;;
22851;SDS011;11592;45.460;9.240;2022-07-29T12:00:50;5.00;;;3.50;;
22851;SDS011;11592;45.460;9.240;2022-07-29T12:03:24;4.68;;;3.50;;
22851;SDS011;11592;45.460;9.240;2022-07-29T12:06:12;7.93;;;4.18;;
22851;SDS011;11592;45.460;9.240;2022-07-29T12:08:42;9.05;;;3.70;;
22851;SDS011;11592;45.460;9.240;2022-07-29T12:11:16;7.57;;;3.55;;
22851;SDS011;11592;45.460;9.240;2022-07-29T12:13:46;12.77;;;4.65;;
22851;SDS011;11592;45.460;9.240;2022-07-29T12:16:14;6.97;;;4.00;;
22851;SDS011;11592;45.460;9.240;2022-07-29T12:18:58;5.90;;;3.33;;
22851;SDS011;11592;45.460;9.240;2022-07-29T12:21:28;11.10;;;3.97;;
22851;SDS011;11592;45.460;9.240;2022-07-29T12:23:56;6.30;;;3.80;;
22851;SDS011;11592;45.460;9.240;2022-07-29T12:26:33;4.45;;;3.65;;
22851;SDS011;11592;45.460;9.240;2022-07-29T12:29:01;8.75;;;3.70;;
22851;SDS011;11592;45.460;9.240;2022-07-29T12:31:28;11.98;;;5.40;;
22851;SDS011;11592;45.460;9.240;2022-07-29T12:34:10;10.10;;;4.60;;
22851;SDS011;11592;45.460;9.240;2022-07-29T12:36:38;8.40;;;4.25;;
22851;SDS011;11592;45.460;9.240;2022-07-29T12:39:06;5.80;;;4.20;;
22851;SDS011;11592;45.460;9.240;2022-07-29T12:41:35;8.57;;;4.13;;
22851;SDS011;11592;45.460;9.240;2022-07-29T12:44:02;7.60;;;3.88;;
22851;SDS011;11592;45.460;9.240;2022-07-29T12:46:29;9.57;;;3.90;;
22851;SDS011;11592;45.460;9.240;2022-07-29T12:48:56;6.70;;;3.80;;
22851;SDS011;11592;45.460;9.240;2022-07-29T12:51:31;7.40;;;3.97;;
22851;SDS011;11592;45.460;9.240;2022-07-29T12:54:10;10.73;;;4.00;;
22851;SDS011;11592;45.460;9.240;2022-07-29T12:56:39;7.10;;;3.60;;
22851;SDS011;11592;45.460;9.240;2022-07-29T12:59:13;5.68;;;3.70;;
22851;SDS011;11592;45.460;9.240;2022-07-29T13:01:50;6.10;;;3.90;;
22851;SDS011;11592;45.460;9.240;2022-07-29T13:04:28;6.55;;;4.45;;
22851;SDS011;11592;45.460;9.240;2022-07-29T13:09:43;5.85;;;3.95;;
22851;SDS011;11592;45.460;9.240;2022-07-29T13:12:12;6.63;;;3.85;;
22851;SDS011;11592;45.460;9.240;2022-07-29T13:14:40;10.20;;;4.88;;
22851;SDS011;11592;45.460;9.240;2022-07-29T13:17:09;4.93;;;3.47;;
22851;SDS011;11592;45.460;9.240;2022-07-29T13:19:42;7.00;;;3.75;;
22851;SDS011;11592;45.460;9.240;2022-07-29T13:22:11;7.72;;;3.97;;
22851;SDS011;11592;45.460;9.240;2022-07-29T13:24:53;9.70;;;4.10;;
22851;SDS011;11592;45.460;9.240;2022-07-29T13:27:22;6.93;;;3.72;;
22851;SDS011;11592;45.460;9.240;2022-07-29T13:29:50;8.63;;;4.22;;
22851;SDS011;11592;45.460;9.240;2022-07-29T13:32:19;7.28;;;4.05;;
22851;SDS011;11592;45.460;9.240;2022-07-29T13:34:54;6.75;;;4.00;;
22851;SDS011;11592;45.460;9.240;2022-07-29T13:37:22;5.57;;;3.53;;
22851;SDS011;11592;45.460;9.240;2022-07-29T13:39:49;6.57;;;4.13;;
22851;SDS011;11592;45.460;9.240;2022-07-29T13:42:18;5.47;;;4.00;;
22851;SDS011;11592;45.460;9.240;2022-07-29T13:44:45;10.43;;;4.15;;
22851;SDS011;11592;45.460;9.240;2022-07-29T13:47:12;8.38;;;3.95;;
22851;SDS011;11592;45.460;9.240;2022-07-29T13:49:39;7.75;;;4.45;;
22851;SDS011;11592;45.460;9.240;2022-07-29T13:52:05;7.90;;;4.50;;
22851;SDS011;11592;45.460;9.240;2022-07-29T13:54:33;6.40;;;4.15;;
22851;SDS011;11592;45.460;9.240;2022-07-29T13:57:07;9.27;;;4.17;;
22851;SDS011;11592;45.460;9.240;2022-07-29T13:59:34;10.35;;;4.50;;
22851;SDS011;11592;45.460;9.240;2022-07-29T14:02:01;7.72;;;4.82;;
22851;SDS011;11592;45.460;9.240;2022-07-29T14:04:28;6.97;;;3.92;;
22851;SDS011;11592;45.460;9.240;2022-07-29T14:06:55;7.93;;;3.95;;
22851;SDS011;11592;45.460;9.240;2022-07-29T14:09:22;7.30;;;4.00;;
22851;SDS011;11592;45.460;9.240;2022-07-29T14:11:49;8.95;;;3.85;;
22851;SDS011;11592;45.460;9.240;2022-07-29T14:14:17;6.18;;;4.32;;
22851;SDS011;11592;45.460;9.240;2022-07-29T14:16:44;4.30;;;3.28;;
22851;SDS011;11592;45.460;9.240;2022-07-29T14:19:17;7.00;;;3.70;;
22851;SDS011;11592;45.460;9.240;2022-07-29T14:21:44;8.93;;;4.22;;
22851;SDS011;11592;45.460;9.240;2022-07-29T14:24:11;7.57;;;4.30;;
22851;SDS011;11592;45.460;9.240;2022-07-29T14:26:43;5.15;;;4.25;;
22851;SDS011;11592;45.460;9.240;2022-07-29T14:29:11;8.32;;;4.32;;
22851;SDS011;11592;45.460;9.240;2022-07-29T14:31:38;6.78;;;4.22;;
22851;SDS011;11592;45.460;9.240;2022-07-29T14:34:05;7.57;;;3.85;;
22851;SDS011;11592;45.460;9.240;2022-07-29T14:36:36;6.43;;;4.15;;
22851;SDS011;11592;45.460;9.240;2022-07-29T14:39:03;7.75;;;4.03;;
22851;SDS011;11592;45.460;9.240;2022-07-29T14:41:30;10.63;;;4.25;;
22851;SDS011;11592;45.460;9.240;2022-07-29T14:43:57;6.70;;;3.97;;
22851;SDS011;11592;45.460;9.240;2022-07-29T14:46:26;6.18;;;4.03;;
22851;SDS011;11592;45.460;9.240;2022-07-29T14:48:54;7.82;;;5.00;;
22851;SDS011;11592;45.460;9.240;2022-07-29T14:51:21;4.53;;;3.85;;
22851;SDS011;11592;45.460;9.240;2022-07-29T14:53:48;5.78;;;3.75;;
22851;SDS011;11592;45.460;9.240;2022-07-29T14:56:14;5.15;;;4.30;;
22851;SDS011;11592;45.460;9.240;2022-07-29T14:59:01;13.07;;;4.28;;
22851;SDS011;11592;45.460;9.240;2022-07-29T15:01:28;5.25;;;4.20;;
22851;SDS011;11592;45.460;9.240;2022-07-29T15:03:55;9.05;;;4.90;;
22851;SDS011;11592;45.460;9.240;2022-07-29T15:06:25;5.13;;;3.60;;
22851;SDS011;11592;45.460;9.240;2022-07-29T15:08:52;7.30;;;4.93;;
22851;SDS011;11592;45.460;9.240;2022-07-29T15:11:20;8.18;;;4.82;;
22851;SDS011;11592;45.460;9.240;2022-07-29T15:13:46;7.80;;;4.75;;
22851;SDS011;11592;45.460;9.240;2022-07-29T15:16:13;10.07;;;4.63;;
22851;SDS011;11592;45.460;9.240;2022-07-29T15:18:40;6.13;;;4.22;;
22851;SDS011;11592;45.460;9.240;2022-07-29T15:21:07;10.05;;;5.35;;
22851;SDS011;11592;45.460;9.240;2022-07-29T15:23:34;18.83;;;6.18;;
22851;SDS011;11592;45.460;9.240;2022-07-29T15:26:02;12.35;;;5.32;;
22851;SDS011;11592;45.460;9.240;2022-07-29T15:28:30;18.33;;;6.43;;
22851;SDS011;11592;45.460;9.240;2022-07-29T15:30:56;24.48;;;8.88;;
22851;SDS011;11592;45.460;9.240;2022-07-29T15:33:25;22.27;;;8.50;;
22851;SDS011;11592;45.460;9.240;2022-07-29T15:35:52;24.75;;;8.82;;
22851;SDS011;11592;45.460;9.240;2022-07-29T15:38:18;20.13;;;9.55;;
22851;SDS011;11592;45.460;9.240;2022-07-29T15:40:53;10.80;;;6.25;;
22851;SDS011;11592;45.460;9.240;2022-07-29T15:43:20;12.90;;;5.50;;